UAL694 KSNA-KSFO
Flight info
| Callsign | UAL694 |
|---|---|
| Flight time | 1h 4m |
| Altitude | 32000 |
| Route | HHERO3 IKAYE RIZIN SPLNT STOKD SERFR SERFR4 |
| Aircraft | B38M/M-SDE1FGHILORVWXY/HB1 |
Departure
| Time | 2026-05-06 01:48 |
|---|---|
| Airport | John Wayne Orange County International Airport (KSNA) |
Arrival
| Time | 2026-05-06 02:52 |
|---|---|
| Airport | San Francisco International Airport (KSFO) |
| Time | Latitude | Longitude | Altitude | Speed | Heading |
|---|---|---|---|---|---|
| 2026-05-06 01:17 | 33.67902 | -117.86263 | 50 ft | 0 kts | 116° |
| 2026-05-06 01:34 | 33.67906 | -117.86271 | 54 ft | 383 kts | 116° |
| 2026-05-06 01:35 | 33.67909 | -117.86334 | 55 ft | 0 kts | 28° |
| 2026-05-06 01:43 | 33.67911 | -117.86333 | 51 ft | 0 kts | 28° |
| 2026-05-06 01:43 | 33.67925 | -117.86324 | 53 ft | 5 kts | 27° |
| 2026-05-06 01:44 | 33.67970 | -117.86295 | 51 ft | 10 kts | 27° |
| 2026-05-06 01:44 | 33.68044 | -117.86279 | 49 ft | 12 kts | 328° |
| 2026-05-06 01:44 | 33.68091 | -117.86365 | 51 ft | 13 kts | 298° |
| 2026-05-06 01:44 | 33.68114 | -117.86416 | 50 ft | 0 kts | 298° |
| 2026-05-06 01:46 | 33.68120 | -117.86431 | 50 ft | 4 kts | 298° |
| 2026-05-06 01:46 | 33.68143 | -117.86485 | 49 ft | 9 kts | 291° |
| 2026-05-06 01:47 | 33.68128 | -117.86529 | 48 ft | 5 kts | 221° |
| 2026-05-06 01:47 | 33.68080 | -117.86563 | 51 ft | 23 kts | 208° |
| 2026-05-06 01:47 | 33.67673 | -117.86823 | 60 ft | 107 kts | 207° |
| 2026-05-06 01:47 | 33.66852 | -117.87338 | 306 ft | 149 kts | 207° |
| 2026-05-06 01:48 | 33.65890 | -117.87892 | 1082 ft | 146 kts | 207° |
| 2026-05-06 01:48 | 33.65072 | -117.88336 | 2013 ft | 127 kts | 206° |
| 2026-05-06 01:48 | 33.64224 | -117.88770 | 2370 ft | 136 kts | 210° |
| 2026-05-06 01:48 | 33.63262 | -117.89045 | 2720 ft | 151 kts | 187° |
| 2026-05-06 01:49 | 33.62170 | -117.89197 | 3022 ft | 166 kts | 189° |
| 2026-05-06 01:49 | 33.60944 | -117.89376 | 3437 ft | 186 kts | 190° |
| 2026-05-06 01:49 | 33.59601 | -117.89575 | 3948 ft | 202 kts | 190° |
| 2026-05-06 01:49 | 33.58147 | -117.89791 | 4465 ft | 219 kts | 189° |
| 2026-05-06 01:50 | 33.56717 | -117.90442 | 4959 ft | 232 kts | 221° |
| 2026-05-06 01:50 | 33.55466 | -117.91774 | 5450 ft | 250 kts | 225° |
| 2026-05-06 01:50 | 33.54178 | -117.93283 | 5995 ft | 266 kts | 226° |
| 2026-05-06 01:50 | 33.52820 | -117.94845 | 6709 ft | 274 kts | 225° |
| 2026-05-06 01:51 | 33.51385 | -117.96452 | 7431 ft | 282 kts | 224° |
| 2026-05-06 01:51 | 33.49929 | -117.98085 | 7914 ft | 290 kts | 224° |
| 2026-05-06 01:51 | 33.48481 | -117.99732 | 7997 ft | 289 kts | 227° |
| 2026-05-06 01:51 | 33.47301 | -118.01664 | 8050 ft | 287 kts | 241° |
| 2026-05-06 01:52 | 33.46301 | -118.03740 | 8654 ft | 289 kts | 242° |
| 2026-05-06 01:52 | 33.45297 | -118.05849 | 9477 ft | 295 kts | 242° |
| 2026-05-06 01:52 | 33.44607 | -118.07261 | 9982 ft | 298 kts | 241° |
| 2026-05-06 01:52 | 33.43535 | -118.09422 | 10592 ft | 307 kts | 242° |
| 2026-05-06 01:53 | 33.42424 | -118.11675 | 11049 ft | 321 kts | 242° |
| 2026-05-06 01:53 | 33.41493 | -118.14137 | 11510 ft | 329 kts | 260° |
| 2026-05-06 01:53 | 33.41412 | -118.16862 | 12146 ft | 329 kts | 282° |
| 2026-05-06 01:53 | 33.41875 | -118.19559 | 12826 ft | 333 kts | 284° |
| 2026-05-06 01:54 | 33.42433 | -118.22270 | 13539 ft | 337 kts | 286° |
| 2026-05-06 01:54 | 33.42997 | -118.25007 | 14225 ft | 341 kts | 284° |
| 2026-05-06 01:54 | 33.43525 | -118.27791 | 14913 ft | 344 kts | 285° |
| 2026-05-06 01:54 | 33.44189 | -118.30541 | 15573 ft | 345 kts | 296° |
| 2026-05-06 01:55 | 33.45275 | -118.33116 | 16186 ft | 349 kts | 299° |
| 2026-05-06 01:55 | 33.46428 | -118.35696 | 16813 ft | 353 kts | 299° |
| 2026-05-06 01:55 | 33.47587 | -118.38309 | 17466 ft | 357 kts | 299° |
| 2026-05-06 01:55 | 33.48735 | -118.40957 | 18116 ft | 360 kts | 299° |
| 2026-05-06 01:56 | 33.49894 | -118.43635 | 18651 ft | 364 kts | 299° |
| 2026-05-06 01:56 | 33.51068 | -118.46332 | 19179 ft | 366 kts | 299° |
| 2026-05-06 01:56 | 33.52304 | -118.49018 | 19680 ft | 369 kts | 306° |
| 2026-05-06 01:56 | 33.53840 | -118.51495 | 20150 ft | 372 kts | 309° |
| 2026-05-06 01:57 | 33.55420 | -118.53907 | 20646 ft | 374 kts | 310° |
| 2026-05-06 01:57 | 33.57027 | -118.56372 | 21163 ft | 376 kts | 309° |
| 2026-05-06 01:57 | 33.58623 | -118.58878 | 21652 ft | 379 kts | 309° |
| 2026-05-06 01:57 | 33.60232 | -118.61407 | 22139 ft | 382 kts | 309° |
| 2026-05-06 01:58 | 33.61860 | -118.63941 | 22638 ft | 384 kts | 309° |
| 2026-05-06 01:58 | 33.63499 | -118.66491 | 23116 ft | 386 kts | 310° |
| 2026-05-06 01:58 | 33.65137 | -118.69050 | 23650 ft | 387 kts | 310° |
| 2026-05-06 01:58 | 33.67036 | -118.71315 | 24081 ft | 385 kts | 324° |
| 2026-05-06 01:59 | 33.69320 | -118.72991 | 24478 ft | 386 kts | 334° |
| 2026-05-06 01:59 | 33.71714 | -118.74476 | 24842 ft | 388 kts | 334° |
| 2026-05-06 01:59 | 33.74105 | -118.75935 | 25203 ft | 391 kts | 334° |
| 2026-05-06 01:59 | 33.76537 | -118.77440 | 25570 ft | 394 kts | 334° |
| 2026-05-06 02:00 | 33.78979 | -118.78969 | 25933 ft | 396 kts | 334° |
| 2026-05-06 02:00 | 33.81435 | -118.80501 | 26302 ft | 399 kts | 334° |
| 2026-05-06 02:00 | 33.83918 | -118.82039 | 26669 ft | 401 kts | 334° |
| 2026-05-06 02:00 | 33.86408 | -118.83586 | 27036 ft | 404 kts | 334° |
| 2026-05-06 02:01 | 33.88912 | -118.85149 | 27391 ft | 406 kts | 334° |
| 2026-05-06 02:01 | 33.91387 | -118.86693 | 27838 ft | 406 kts | 335° |
| 2026-05-06 02:01 | 33.93892 | -118.88254 | 28294 ft | 406 kts | 335° |
| 2026-05-06 02:01 | 33.96400 | -118.89819 | 28760 ft | 405 kts | 335° |
| 2026-05-06 02:02 | 33.98908 | -118.91386 | 29223 ft | 405 kts | 335° |
| 2026-05-06 02:02 | 34.01405 | -118.92947 | 29687 ft | 405 kts | 335° |
| 2026-05-06 02:02 | 34.03902 | -118.94509 | 30140 ft | 404 kts | 335° |
| 2026-05-06 02:02 | 34.06396 | -118.96069 | 30510 ft | 403 kts | 335° |
| 2026-05-06 02:03 | 34.08883 | -118.97630 | 30914 ft | 402 kts | 337° |
| 2026-05-06 02:03 | 34.11354 | -118.99198 | 31282 ft | 403 kts | 334° |
| 2026-05-06 02:03 | 34.13646 | -119.01183 | 31701 ft | 408 kts | 323° |
| 2026-05-06 02:03 | 34.15597 | -119.03681 | 32019 ft | 411 kts | 312° |
| 2026-05-06 02:04 | 34.18668 | -119.09474 | 32010 ft | 406 kts | 307° |
| 2026-05-06 02:04 | 34.21645 | -119.15252 | 32014 ft | 403 kts | 307° |
| 2026-05-06 02:05 | 34.24594 | -119.20976 | 32011 ft | 403 kts | 307° |
| 2026-05-06 02:05 | 34.27571 | -119.26773 | 32017 ft | 406 kts | 309° |
| 2026-05-06 02:06 | 34.30544 | -119.32571 | 32011 ft | 404 kts | 309° |
| 2026-05-06 02:06 | 34.33506 | -119.38354 | 32003 ft | 404 kts | 309° |
| 2026-05-06 02:07 | 34.36450 | -119.44114 | 32009 ft | 403 kts | 309° |
| 2026-05-06 02:07 | 34.39404 | -119.49896 | 31996 ft | 405 kts | 309° |
| 2026-05-06 02:08 | 34.42739 | -119.55276 | 31995 ft | 394 kts | 323° |
| 2026-05-06 02:08 | 34.46620 | -119.60001 | 32002 ft | 396 kts | 323° |
| 2026-05-06 02:09 | 34.50467 | -119.64752 | 31993 ft | 397 kts | 323° |
| 2026-05-06 02:09 | 34.54346 | -119.69522 | 32035 ft | 396 kts | 323° |
| 2026-05-06 02:10 | 34.58215 | -119.74300 | 31990 ft | 397 kts | 323° |
| 2026-05-06 02:10 | 34.62089 | -119.79082 | 32002 ft | 397 kts | 323° |
| 2026-05-06 02:11 | 34.65924 | -119.83828 | 32000 ft | 395 kts | 323° |
| 2026-05-06 02:11 | 34.69777 | -119.88600 | 32003 ft | 394 kts | 323° |
| 2026-05-06 02:12 | 34.73621 | -119.93367 | 32000 ft | 399 kts | 323° |
| 2026-05-06 02:12 | 34.77500 | -119.98188 | 32014 ft | 398 kts | 323° |
| 2026-05-06 02:13 | 34.81345 | -120.02971 | 32045 ft | 397 kts | 323° |
| 2026-05-06 02:13 | 34.85202 | -120.07775 | 32047 ft | 395 kts | 323° |
| 2026-05-06 02:14 | 34.89057 | -120.12584 | 32047 ft | 395 kts | 323° |
| 2026-05-06 02:14 | 34.92907 | -120.17390 | 32050 ft | 397 kts | 323° |
| 2026-05-06 02:15 | 34.96879 | -120.22368 | 32051 ft | 398 kts | 323° |
| 2026-05-06 02:15 | 35.00748 | -120.27213 | 32022 ft | 398 kts | 323° |
| 2026-05-06 02:16 | 35.04606 | -120.32051 | 32067 ft | 398 kts | 323° |
| 2026-05-06 02:16 | 35.08419 | -120.36844 | 32058 ft | 400 kts | 324° |
| 2026-05-06 02:17 | 35.12480 | -120.41435 | 32064 ft | 396 kts | 327° |
| 2026-05-06 02:17 | 35.16556 | -120.45993 | 32066 ft | 398 kts | 327° |
| 2026-05-06 02:18 | 35.20635 | -120.50572 | 32067 ft | 398 kts | 327° |
| 2026-05-06 02:18 | 35.24693 | -120.55128 | 32052 ft | 398 kts | 327° |
| 2026-05-06 02:19 | 35.28757 | -120.59701 | 32078 ft | 396 kts | 327° |
| 2026-05-06 02:19 | 35.32842 | -120.64298 | 32055 ft | 398 kts | 327° |
| 2026-05-06 02:20 | 35.38947 | -120.71186 | 32056 ft | 398 kts | 327° |
| 2026-05-06 02:21 | 35.43013 | -120.75782 | 32061 ft | 399 kts | 327° |
| 2026-05-06 02:21 | 35.47086 | -120.80390 | 32063 ft | 399 kts | 327° |
| 2026-05-06 02:22 | 35.51341 | -120.84596 | 32067 ft | 393 kts | 333° |
| 2026-05-06 02:22 | 35.55723 | -120.88652 | 32069 ft | 394 kts | 332° |
| 2026-05-06 02:23 | 35.60105 | -120.92727 | 32074 ft | 394 kts | 332° |
| 2026-05-06 02:23 | 35.64482 | -120.96794 | 32053 ft | 393 kts | 332° |
| 2026-05-06 02:24 | 35.68815 | -121.00827 | 32061 ft | 392 kts | 332° |
| 2026-05-06 02:24 | 35.73166 | -121.04884 | 32056 ft | 392 kts | 332° |
| 2026-05-06 02:25 | 35.77514 | -121.08942 | 32067 ft | 392 kts | 332° |
| 2026-05-06 02:25 | 35.81859 | -121.13005 | 32070 ft | 392 kts | 332° |
| 2026-05-06 02:26 | 35.86203 | -121.17072 | 32072 ft | 392 kts | 332° |
| 2026-05-06 02:26 | 35.90544 | -121.21143 | 32074 ft | 392 kts | 332° |
| 2026-05-06 02:27 | 35.94876 | -121.25210 | 32068 ft | 390 kts | 331° |
| 2026-05-06 02:27 | 35.99200 | -121.29275 | 32068 ft | 391 kts | 331° |
| 2026-05-06 02:28 | 36.03497 | -121.33322 | 32077 ft | 391 kts | 331° |
| 2026-05-06 02:28 | 36.07858 | -121.37288 | 32065 ft | 382 kts | 336° |
| 2026-05-06 02:29 | 36.12339 | -121.40747 | 32017 ft | 376 kts | 336° |
| 2026-05-06 02:29 | 36.14566 | -121.42487 | 31627 ft | 382 kts | 336° |
| 2026-05-06 02:29 | 36.16821 | -121.44250 | 31141 ft | 383 kts | 336° |
| 2026-05-06 02:29 | 36.19048 | -121.45992 | 30664 ft | 383 kts | 336° |
| 2026-05-06 02:30 | 36.21296 | -121.47749 | 30215 ft | 380 kts | 336° |
| 2026-05-06 02:30 | 36.23528 | -121.49494 | 29724 ft | 378 kts | 336° |
| 2026-05-06 02:30 | 36.25754 | -121.51234 | 29243 ft | 377 kts | 335° |
| 2026-05-06 02:30 | 36.27975 | -121.52972 | 28772 ft | 376 kts | 335° |
| 2026-05-06 02:31 | 36.30178 | -121.54702 | 28321 ft | 373 kts | 335° |
| 2026-05-06 02:31 | 36.32359 | -121.56414 | 27864 ft | 370 kts | 335° |
| 2026-05-06 02:31 | 36.34530 | -121.58116 | 27406 ft | 367 kts | 335° |
| 2026-05-06 02:31 | 36.36677 | -121.59801 | 26951 ft | 364 kts | 335° |
| 2026-05-06 02:32 | 36.38788 | -121.61459 | 26518 ft | 362 kts | 335° |
| 2026-05-06 02:32 | 36.40910 | -121.63128 | 26078 ft | 359 kts | 335° |
| 2026-05-06 02:32 | 36.43014 | -121.64783 | 25635 ft | 357 kts | 334° |
| 2026-05-06 02:32 | 36.45109 | -121.66432 | 25205 ft | 355 kts | 334° |
| 2026-05-06 02:33 | 36.47191 | -121.68071 | 24769 ft | 353 kts | 334° |
| 2026-05-06 02:33 | 36.48561 | -121.69152 | 24486 ft | 352 kts | 334° |
| 2026-05-06 02:34 | 36.54737 | -121.74027 | 23063 ft | 349 kts | 334° |
| 2026-05-06 02:34 | 36.56783 | -121.75646 | 22598 ft | 347 kts | 333° |
| 2026-05-06 02:34 | 36.58809 | -121.77250 | 22128 ft | 344 kts | 333° |
| 2026-05-06 02:34 | 36.60826 | -121.78846 | 21686 ft | 342 kts | 333° |
| 2026-05-06 02:35 | 36.62824 | -121.80428 | 21228 ft | 339 kts | 333° |
| 2026-05-06 02:35 | 36.64811 | -121.82003 | 20789 ft | 337 kts | 333° |
| 2026-05-06 02:35 | 36.66785 | -121.83569 | 20339 ft | 335 kts | 333° |
| 2026-05-06 02:35 | 36.68746 | -121.85126 | 19905 ft | 333 kts | 332° |
| 2026-05-06 02:36 | 36.70676 | -121.86658 | 19481 ft | 331 kts | 332° |
| 2026-05-06 02:36 | 36.72614 | -121.88198 | 19042 ft | 329 kts | 332° |
| 2026-05-06 02:36 | 36.74613 | -121.89518 | 18623 ft | 321 kts | 346° |
| 2026-05-06 02:36 | 36.76764 | -121.90183 | 18153 ft | 317 kts | 351° |
| 2026-05-06 02:37 | 36.78916 | -121.90748 | 17724 ft | 314 kts | 351° |
| 2026-05-06 02:37 | 36.81040 | -121.91331 | 17311 ft | 311 kts | 350° |
| 2026-05-06 02:37 | 36.83147 | -121.91929 | 16836 ft | 310 kts | 350° |
| 2026-05-06 02:37 | 36.85246 | -121.92520 | 16394 ft | 308 kts | 350° |
| 2026-05-06 02:38 | 36.87302 | -121.93092 | 16002 ft | 305 kts | 350° |
| 2026-05-06 02:38 | 36.89393 | -121.93674 | 15592 ft | 303 kts | 350° |
| 2026-05-06 02:38 | 36.91418 | -121.94241 | 15197 ft | 301 kts | 350° |
| 2026-05-06 02:38 | 36.93454 | -121.94812 | 14795 ft | 299 kts | 350° |
| 2026-05-06 02:39 | 36.95475 | -121.95416 | 14399 ft | 298 kts | 346° |
| 2026-05-06 02:39 | 36.97452 | -121.96198 | 14009 ft | 297 kts | 346° |
| 2026-05-06 02:39 | 36.99420 | -121.96960 | 13585 ft | 296 kts | 346° |
| 2026-05-06 02:39 | 37.01384 | -121.97719 | 13191 ft | 294 kts | 346° |
| 2026-05-06 02:40 | 37.03335 | -121.98480 | 12803 ft | 293 kts | 346° |
| 2026-05-06 02:40 | 37.05280 | -121.99240 | 12418 ft | 292 kts | 345° |
| 2026-05-06 02:40 | 37.07212 | -121.99995 | 12016 ft | 290 kts | 346° |
| 2026-05-06 02:40 | 37.09132 | -122.00744 | 11644 ft | 288 kts | 345° |
| 2026-05-06 02:41 | 37.11046 | -122.01492 | 11265 ft | 287 kts | 345° |
| 2026-05-06 02:41 | 37.12946 | -122.02235 | 10888 ft | 285 kts | 345° |
| 2026-05-06 02:41 | 37.14819 | -122.02967 | 10512 ft | 284 kts | 345° |
| 2026-05-06 02:41 | 37.16704 | -122.03705 | 10141 ft | 282 kts | 346° |
| 2026-05-06 02:42 | 37.18580 | -122.04438 | 9753 ft | 282 kts | 346° |
| 2026-05-06 02:42 | 37.20449 | -122.05168 | 9363 ft | 280 kts | 345° |
| 2026-05-06 02:42 | 37.22305 | -122.05898 | 9004 ft | 279 kts | 345° |
| 2026-05-06 02:42 | 37.24152 | -122.06624 | 8626 ft | 278 kts | 345° |
| 2026-05-06 02:43 | 37.25992 | -122.07345 | 8264 ft | 276 kts | 344° |
| 2026-05-06 02:43 | 37.27819 | -122.08062 | 7902 ft | 275 kts | 344° |
| 2026-05-06 02:43 | 37.29643 | -122.08779 | 7537 ft | 274 kts | 344° |
| 2026-05-06 02:43 | 37.31432 | -122.09484 | 7183 ft | 273 kts | 344° |
| 2026-05-06 02:44 | 37.33235 | -122.10195 | 6826 ft | 272 kts | 344° |
| 2026-05-06 02:44 | 37.35041 | -122.10908 | 6459 ft | 271 kts | 343° |
| 2026-05-06 02:44 | 37.36833 | -122.11615 | 6095 ft | 269 kts | 343° |
| 2026-05-06 02:44 | 37.38631 | -122.12222 | 5755 ft | 266 kts | 346° |
| 2026-05-06 02:45 | 37.40408 | -122.12844 | 5433 ft | 264 kts | 345° |
| 2026-05-06 02:45 | 37.42160 | -122.13481 | 5087 ft | 250 kts | 345° |
| 2026-05-06 02:45 | 37.43747 | -122.14026 | 4776 ft | 226 kts | 345° |
| 2026-05-06 02:45 | 37.45215 | -122.14522 | 4523 ft | 215 kts | 344° |
| 2026-05-06 02:46 | 37.46653 | -122.15015 | 4271 ft | 215 kts | 344° |
| 2026-05-06 02:46 | 37.48093 | -122.15511 | 4052 ft | 209 kts | 343° |
| 2026-05-06 02:46 | 37.49417 | -122.15963 | 3806 ft | 187 kts | 343° |
| 2026-05-06 02:46 | 37.50607 | -122.16371 | 3582 ft | 172 kts | 342° |
| 2026-05-06 02:47 | 37.51723 | -122.16757 | 3368 ft | 162 kts | 340° |
| 2026-05-06 02:47 | 37.52799 | -122.17138 | 3182 ft | 159 kts | 339° |
| 2026-05-06 02:47 | 37.53652 | -122.17935 | 2986 ft | 152 kts | 302° |
| 2026-05-06 02:47 | 37.54175 | -122.19106 | 2796 ft | 153 kts | 296° |
| 2026-05-06 02:48 | 37.54669 | -122.20285 | 2585 ft | 151 kts | 296° |
| 2026-05-06 02:48 | 37.55157 | -122.21449 | 2403 ft | 149 kts | 296° |
| 2026-05-06 02:48 | 37.55642 | -122.22607 | 2204 ft | 149 kts | 296° |
| 2026-05-06 02:48 | 37.56125 | -122.23761 | 2075 ft | 149 kts | 296° |
| 2026-05-06 02:49 | 37.56602 | -122.24900 | 1898 ft | 147 kts | 296° |
| 2026-05-06 02:49 | 37.57077 | -122.26033 | 1713 ft | 145 kts | 296° |
| 2026-05-06 02:49 | 37.57552 | -122.27170 | 1507 ft | 147 kts | 296° |
| 2026-05-06 02:49 | 37.58021 | -122.28287 | 1327 ft | 142 kts | 296° |
| 2026-05-06 02:50 | 37.58493 | -122.29415 | 1146 ft | 146 kts | 296° |
| 2026-05-06 02:50 | 37.58959 | -122.30531 | 956 ft | 148 kts | 297° |
| 2026-05-06 02:50 | 37.59434 | -122.31669 | 759 ft | 143 kts | 297° |
| 2026-05-06 02:50 | 37.59895 | -122.32770 | 582 ft | 143 kts | 297° |
| 2026-05-06 02:51 | 37.60359 | -122.33877 | 397 ft | 142 kts | 296° |
| 2026-05-06 02:51 | 37.60819 | -122.34977 | 219 ft | 141 kts | 296° |
| 2026-05-06 02:51 | 37.61271 | -122.36065 | 59 ft | 135 kts | 296° |
| 2026-05-06 02:51 | 37.61639 | -122.36953 | 27 ft | 93 kts | 297° |
| 2026-05-06 02:52 | 37.61867 | -122.37492 | 20 ft | 47 kts | 296° |
| 2026-05-06 02:52 | 37.61963 | -122.37723 | 23 ft | 18 kts | 297° |
| 2026-05-06 02:52 | 37.61998 | -122.37826 | 24 ft | 12 kts | 279° |
| 2026-05-06 02:52 | 37.61966 | -122.37933 | 26 ft | 12 kts | 229° |
| 2026-05-06 02:53 | 37.61955 | -122.37949 | 23 ft | 0 kts | 229° |
| 2026-05-06 02:54 | 37.61941 | -122.37967 | 26 ft | 5 kts | 226° |
| 2026-05-06 02:54 | 37.61903 | -122.37993 | 26 ft | 8 kts | 190° |
| 2026-05-06 02:54 | 37.61837 | -122.37976 | 23 ft | 13 kts | 160° |
| 2026-05-06 02:55 | 37.61753 | -122.37948 | 20 ft | 7 kts | 202° |
| 2026-05-06 02:55 | 37.61745 | -122.37972 | 20 ft | 2 kts | 277° |
| 2026-05-06 02:55 | 37.61749 | -122.38001 | 20 ft | 5 kts | 280° |
| 2026-05-06 02:55 | 37.61754 | -122.38035 | 21 ft | 0 kts | 281° |
| 2026-05-06 02:56 | 37.61755 | -122.38040 | 22 ft | 0 kts | 281° |